METAR Data
IDs: Format: Raw Decoded Include TAF

Data at: 0106 UTC 06 Dec 2019

KBOS 060054Z 28011KT 10SM SCT050 03/M08 A2983 RMK AO2 SLP101 T00281083
KBOS 052354Z 27013G21KT 10SM FEW035 FEW080 04/M08 A2980 RMK AO2 SLP091 T00391078 10072 20039 51035
KBOS 052254Z 28012KT 10SM FEW031 SCT070 04/M07 A2978 RMK AO2 SLP083 T00441072
KBOS 052154Z 28014G20KT 10SM FEW032 BKN065 05/M06 A2974 RMK AO2 PK WND 29026/2122 SLP070 T00501056
KBOS 052054Z 28013G19KT 10SM FEW033 BKN060 06/M04 A2970 RMK AO2 SLP056 T00611044 53033
KBOS 051954Z 28015G21KT 10SM FEW041 BKN055 06/M04 A2966 RMK AO2 SLP044 T00611044
KBOS 051854Z 28013G20KT 10SM SCT042 BKN065 07/M04 A2963 RMK AO2 SLP033 T00671039 $
KBOS 051754Z 30016G24KT 10SM FEW040 FEW065 07/M03 A2960 RMK AO2 SLP023 T00721033 10072 20028 53003
KBOS 051654Z 28013KT 10SM FEW045 FEW060 FEW250 07/M03 A2959 RMK AO2 SLP020 T00671028 $
KBOS 051554Z 28014KT 10SM FEW060 FEW250 06/M02 A2959 RMK AO2 SLP020 T00611022 $
KBOS 051454Z 27009KT 10SM FEW140 FEW250 06/M02 A2959 RMK AO2 SLP020 T00561017 51015
KBOS 051354Z 28009KT 10SM FEW140 FEW250 04/M02 A2958 RMK AO2 SLP016 T00441022
KBOS 051254Z 26009KT 10SM FEW120 FEW250 03/M03 A2956 RMK AO2 SLP010 T00281028
KBOS 051154Z 27010KT 10SM FEW120 FEW250 03/M03 A2955 RMK AO2 SLP005 T00281028 10033 20022 53020
KBOS 051054Z 28008KT 10SM SCT130 03/M02 A2953 RMK AO2 SLP998 T00281022
KBOS 050954Z 27009KT 10SM BKN110 03/M02 A2951 RMK AO2 SLP991 T00331022
KBOS 050854Z 27007KT 10SM FEW080 SCT120 03/M02 A2949 RMK AO2 SLP984 T00281022 51007
KBOS 050754Z 27009KT 10SM FEW070 FEW250 03/M02 A2948 RMK AO2 SLP982 T00281022
KBOS 050654Z 28009KT 10SM FEW100 SCT250 03/M02 A2948 RMK AO2 SLP981 T00281022
KBOS 050554Z 27008KT 10SM BKN100 03/M02 A2947 RMK AO2 SLP978 T00331022 10050 20033 56002
KBOS 050454Z 27008KT 10SM BKN090 OVC110 03/M02 A2947 RMK AO2 SLP978 T00331022 400501017
KBOS 050354Z 27008KT 10SM BKN060 OVC150 03/M03 A2947 RMK AO2 SLP979 T00331028
KBOS 050254Z 28008KT 10SM BKN060 04/M02 A2947 RMK AO2 SLP980 T00391022 55002
KBOS 050154Z 26007KT 10SM OVC055 04/M02 A2947 RMK AO2 SLP979 T00391022
KBOS 050054Z 25009KT 10SM OVC050 04/M03 A2948 RMK AO2 SLP982 T00441028
KBOS 042354Z 22009KT 10SM OVC050 03/M02 A2948 RMK AO2 SLP982 T00331022 10039 20028 50005
KBOS 042254Z 23007KT 10SM OVC048 03/M02 A2948 RMK AO2 SLP982 T00331022
KBOS 042154Z 22006KT 10SM OVC050 03/M02 A2947 RMK AO2 SLP979 T00331022
KBOS 042054Z 22007KT 10SM OVC050 03/M02 A2946 RMK AO2 SLP976 T00331022 56006
KBOS 041954Z 22008KT 10SM OVC055 03/M03 A2947 RMK AO2 SLP979 T00331028
KBOS 041854Z 22009KT 10SM OVC060 03/M03 A2947 RMK AO2 SLP979 T00331028
KBOS 041754Z 23008KT 10SM OVC060 03/M03 A2948 RMK AO2 SLP982 T00331028 10033 21017 58016
KBOS 041654Z 25009KT 10SM BKN060 OVC200 03/M03 A2950 RMK AO2 SLP989 T00281033
KBOS 041554Z 22009KT 10SM BKN080 BKN200 OVC250 02/M04 A2952 RMK AO2 SLP995 T00221039
KBOS 041454Z 22008KT 10SM FEW140 BKN200 OVC250 01/M06 A2953 RMK AO2 SLP998 T00111056 53002
KBOS 041354Z 21008KT 10SM SCT200 BKN250 00/M06 A2952 RMK AO2 SLP997 T00001061